sensor_id;sensor_type;location;lat;lon;timestamp;temperature;humidity
25302;DHT22;13243;50.888;4.724;2024-01-10T00:03:22;-3.50;99.90
25302;DHT22;13243;50.888;4.724;2024-01-10T00:08:24;-3.60;99.90
25302;DHT22;13243;50.888;4.724;2024-01-10T00:13:26;-3.60;99.90
25302;DHT22;13243;50.888;4.724;2024-01-10T00:18:29;-3.70;99.90
25302;DHT22;13243;50.888;4.724;2024-01-10T00:23:32;-3.60;99.90
25302;DHT22;13243;50.888;4.724;2024-01-10T00:28:34;-3.70;99.90
25302;DHT22;13243;50.888;4.724;2024-01-10T00:33:36;-3.80;99.90
25302;DHT22;13243;50.888;4.724;2024-01-10T00:38:38;-3.80;99.90
25302;DHT22;13243;50.888;4.724;2024-01-10T00:43:40;-3.90;99.90
25302;DHT22;13243;50.888;4.724;2024-01-10T00:48:42;-3.90;99.90
25302;DHT22;13243;50.888;4.724;2024-01-10T00:53:44;-3.90;99.90
25302;DHT22;13243;50.888;4.724;2024-01-10T00:58:46;-3.90;99.90
25302;DHT22;13243;50.888;4.724;2024-01-10T01:03:48;-3.40;99.90
25302;DHT22;13243;50.888;4.724;2024-01-10T01:08:50;-3.90;99.90
25302;DHT22;13243;50.888;4.724;2024-01-10T01:13:52;-4.00;99.90
25302;DHT22;13243;50.888;4.724;2024-01-10T01:18:54;-3.80;99.90
25302;DHT22;13243;50.888;4.724;2024-01-10T01:23:56;-4.00;99.90
25302;DHT22;13243;50.888;4.724;2024-01-10T01:28:58;-4.10;99.90
25302;DHT22;13243;50.888;4.724;2024-01-10T01:34:00;-4.10;99.90
25302;DHT22;13243;50.888;4.724;2024-01-10T01:39:02;-4.10;99.90
25302;DHT22;13243;50.888;4.724;2024-01-10T01:44:05;-4.20;99.90
25302;DHT22;13243;50.888;4.724;2024-01-10T01:49:07;-4.20;99.90
25302;DHT22;13243;50.888;4.724;2024-01-10T01:54:09;-4.30;99.90
25302;DHT22;13243;50.888;4.724;2024-01-10T01:59:13;-4.10;99.90
25302;DHT22;13243;50.888;4.724;2024-01-10T02:04:15;-4.40;99.90
25302;DHT22;13243;50.888;4.724;2024-01-10T02:09:18;-4.40;99.90
25302;DHT22;13243;50.888;4.724;2024-01-10T02:14:20;-4.50;99.90
25302;DHT22;13243;50.888;4.724;2024-01-10T02:19:23;-4.50;99.90
25302;DHT22;13243;50.888;4.724;2024-01-10T02:24:25;-4.70;99.90
25302;DHT22;13243;50.888;4.724;2024-01-10T02:29:27;-4.70;99.90
25302;DHT22;13243;50.888;4.724;2024-01-10T02:34:30;-4.70;99.90
25302;DHT22;13243;50.888;4.724;2024-01-10T02:39:32;-4.80;99.90
25302;DHT22;13243;50.888;4.724;2024-01-10T02:44:34;-4.70;99.90
25302;DHT22;13243;50.888;4.724;2024-01-10T02:49:36;-4.70;99.90
25302;DHT22;13243;50.888;4.724;2024-01-10T02:54:38;-4.90;99.90
25302;DHT22;13243;50.888;4.724;2024-01-10T02:59:40;-4.80;99.90
25302;DHT22;13243;50.888;4.724;2024-01-10T03:04:43;-5.00;99.90
25302;DHT22;13243;50.888;4.724;2024-01-10T03:09:46;-5.10;99.90
25302;DHT22;13243;50.888;4.724;2024-01-10T03:14:48;-5.10;99.90
25302;DHT22;13243;50.888;4.724;2024-01-10T03:19:50;-5.10;99.90
25302;DHT22;13243;50.888;4.724;2024-01-10T03:24:52;-5.20;99.90
25302;DHT22;13243;50.888;4.724;2024-01-10T03:29:54;-5.20;99.90
25302;DHT22;13243;50.888;4.724;2024-01-10T03:34:56;-5.10;99.90
25302;DHT22;13243;50.888;4.724;2024-01-10T03:39:57;-5.20;99.90
25302;DHT22;13243;50.888;4.724;2024-01-10T03:45:01;-5.20;99.90
25302;DHT22;13243;50.888;4.724;2024-01-10T03:50:03;-5.30;99.90
25302;DHT22;13243;50.888;4.724;2024-01-10T03:55:05;-5.40;99.90
25302;DHT22;13243;50.888;4.724;2024-01-10T04:00:07;-5.30;99.90
25302;DHT22;13243;50.888;4.724;2024-01-10T04:05:10;-5.10;99.90
25302;DHT22;13243;50.888;4.724;2024-01-10T04:10:14;-5.20;99.90
25302;DHT22;13243;50.888;4.724;2024-01-10T04:15:16;-5.30;99.90
25302;DHT22;13243;50.888;4.724;2024-01-10T04:20:21;-5.30;99.90
25302;DHT22;13243;50.888;4.724;2024-01-10T04:25:23;-5.30;99.90
25302;DHT22;13243;50.888;4.724;2024-01-10T04:30:25;-5.30;99.90
25302;DHT22;13243;50.888;4.724;2024-01-10T04:35:27;-5.30;99.90
25302;DHT22;13243;50.888;4.724;2024-01-10T04:40:29;-5.50;99.90
25302;DHT22;13243;50.888;4.724;2024-01-10T04:45:31;-5.50;99.90
25302;DHT22;13243;50.888;4.724;2024-01-10T04:50:34;-5.50;99.90
25302;DHT22;13243;50.888;4.724;2024-01-10T04:55:36;-5.50;99.90
25302;DHT22;13243;50.888;4.724;2024-01-10T05:00:38;-5.50;99.90
25302;DHT22;13243;50.888;4.724;2024-01-10T05:05:40;-5.60;99.90
25302;DHT22;13243;50.888;4.724;2024-01-10T05:10:42;-5.60;99.90
25302;DHT22;13243;50.888;4.724;2024-01-10T05:15:44;-5.70;99.90
25302;DHT22;13243;50.888;4.724;2024-01-10T05:20:46;-5.70;99.90
25302;DHT22;13243;50.888;4.724;2024-01-10T05:25:48;-5.60;99.90
25302;DHT22;13243;50.888;4.724;2024-01-10T05:30:50;-5.60;99.90
25302;DHT22;13243;50.888;4.724;2024-01-10T05:35:52;-5.50;99.90
25302;DHT22;13243;50.888;4.724;2024-01-10T05:40:54;-5.60;99.90
25302;DHT22;13243;50.888;4.724;2024-01-10T05:45:56;-5.70;99.90
25302;DHT22;13243;50.888;4.724;2024-01-10T05:50:58;-5.60;99.90
25302;DHT22;13243;50.888;4.724;2024-01-10T05:56:00;-5.50;99.90
25302;DHT22;13243;50.888;4.724;2024-01-10T06:01:02;-5.30;99.90
25302;DHT22;13243;50.888;4.724;2024-01-10T06:06:05;-5.50;99.90
25302;DHT22;13243;50.888;4.724;2024-01-10T06:11:07;-5.00;99.90
25302;DHT22;13243;50.888;4.724;2024-01-10T06:16:11;-5.40;99.90
25302;DHT22;13243;50.888;4.724;2024-01-10T06:21:15;-5.30;99.90
25302;DHT22;13243;50.888;4.724;2024-01-10T06:26:16;-5.30;99.90
25302;DHT22;13243;50.888;4.724;2024-01-10T06:31:18;-5.30;99.90
25302;DHT22;13243;50.888;4.724;2024-01-10T06:36:21;-5.20;99.90
25302;DHT22;13243;50.888;4.724;2024-01-10T06:41:23;-5.30;99.90
25302;DHT22;13243;50.888;4.724;2024-01-10T06:46:26;-5.00;99.90
25302;DHT22;13243;50.888;4.724;2024-01-10T06:51:28;-5.30;99.90
25302;DHT22;13243;50.888;4.724;2024-01-10T06:56:33;-5.30;99.90
25302;DHT22;13243;50.888;4.724;2024-01-10T07:01:35;-5.30;99.90
25302;DHT22;13243;50.888;4.724;2024-01-10T07:06:37;-5.30;99.90
25302;DHT22;13243;50.888;4.724;2024-01-10T07:11:39;-5.30;99.90
25302;DHT22;13243;50.888;4.724;2024-01-10T07:16:42;-5.30;99.90
25302;DHT22;13243;50.888;4.724;2024-01-10T07:21:47;-5.30;99.90
25302;DHT22;13243;50.888;4.724;2024-01-10T07:26:49;-5.20;99.90
25302;DHT22;13243;50.888;4.724;2024-01-10T07:31:51;-5.00;99.90
25302;DHT22;13243;50.888;4.724;2024-01-10T07:36:54;-5.10;99.90
25302;DHT22;13243;50.888;4.724;2024-01-10T07:41:57;-4.80;99.90
25302;DHT22;13243;50.888;4.724;2024-01-10T07:46:59;-4.80;99.90
25302;DHT22;13243;50.888;4.724;2024-01-10T07:52:03;-4.40;99.90
25302;DHT22;13243;50.888;4.724;2024-01-10T07:57:06;-4.80;99.90
25302;DHT22;13243;50.888;4.724;2024-01-10T08:02:08;-4.90;99.90
25302;DHT22;13243;50.888;4.724;2024-01-10T08:07:12;-5.00;99.90
25302;DHT22;13243;50.888;4.724;2024-01-10T08:12:13;-4.90;99.90
25302;DHT22;13243;50.888;4.724;2024-01-10T08:17:15;-4.80;99.90
25302;DHT22;13243;50.888;4.724;2024-01-10T08:22:18;-4.80;99.90
25302;DHT22;13243;50.888;4.724;2024-01-10T08:27:21;-4.50;99.90
25302;DHT22;13243;50.888;4.724;2024-01-10T08:32:23;-4.70;99.90
25302;DHT22;13243;50.888;4.724;2024-01-10T08:37:25;-4.70;99.90
25302;DHT22;13243;50.888;4.724;2024-01-10T08:42:27;-4.70;99.90
25302;DHT22;13243;50.888;4.724;2024-01-10T08:47:29;-4.60;99.90
25302;DHT22;13243;50.888;4.724;2024-01-10T08:52:35;-4.50;99.90
25302;DHT22;13243;50.888;4.724;2024-01-10T08:57:39;-4.40;99.90
25302;DHT22;13243;50.888;4.724;2024-01-10T09:02:41;-4.20;99.90
25302;DHT22;13243;50.888;4.724;2024-01-10T09:07:43;-4.00;99.90
25302;DHT22;13243;50.888;4.724;2024-01-10T09:12:45;-3.90;99.90
25302;DHT22;13243;50.888;4.724;2024-01-10T09:17:48;-3.70;99.90
25302;DHT22;13243;50.888;4.724;2024-01-10T09:22:50;-3.50;99.90
25302;DHT22;13243;50.888;4.724;2024-01-10T09:27:52;-3.40;99.90
25302;DHT22;13243;50.888;4.724;2024-01-10T09:32:54;-3.40;99.90
25302;DHT22;13243;50.888;4.724;2024-01-10T09:37:58;-3.20;99.90
25302;DHT22;13243;50.888;4.724;2024-01-10T09:43:02;-2.60;99.90
25302;DHT22;13243;50.888;4.724;2024-01-10T09:48:04;-3.00;99.90
25302;DHT22;13243;50.888;4.724;2024-01-10T09:53:07;-2.90;99.90
25302;DHT22;13243;50.888;4.724;2024-01-10T09:58:14;-2.80;99.90
25302;DHT22;13243;50.888;4.724;2024-01-10T10:03:17;-2.70;99.90
25302;DHT22;13243;50.888;4.724;2024-01-10T10:08:20;-2.60;99.90
25302;DHT22;13243;50.888;4.724;2024-01-10T10:13:26;-2.40;99.90
25302;DHT22;13243;50.888;4.724;2024-01-10T10:18:29;-2.20;99.90
25302;DHT22;13243;50.888;4.724;2024-01-10T10:23:32;-2.10;99.90
25302;DHT22;13243;50.888;4.724;2024-01-10T10:28:34;-1.90;99.90
25302;DHT22;13243;50.888;4.724;2024-01-10T10:33:37;-2.00;99.90
25302;DHT22;13243;50.888;4.724;2024-01-10T10:38:40;-1.90;99.90
25302;DHT22;13243;50.888;4.724;2024-01-10T10:43:42;-1.80;99.90
25302;DHT22;13243;50.888;4.724;2024-01-10T10:48:44;-1.60;99.90
25302;DHT22;13243;50.888;4.724;2024-01-10T10:53:47;-1.40;99.90
25302;DHT22;13243;50.888;4.724;2024-01-10T10:58:50;-1.30;99.90
25302;DHT22;13243;50.888;4.724;2024-01-10T11:03:53;-1.20;99.90
25302;DHT22;13243;50.888;4.724;2024-01-10T11:09:02;-1.10;99.90
25302;DHT22;13243;50.888;4.724;2024-01-10T11:14:16;-1.20;99.90
25302;DHT22;13243;50.888;4.724;2024-01-10T11:24:41;-0.90;99.90
25302;DHT22;13243;50.888;4.724;2024-01-10T11:29:45;-0.70;99.90
25302;DHT22;13243;50.888;4.724;2024-01-10T11:39:55;-0.70;99.90
25302;DHT22;13243;50.888;4.724;2024-01-10T11:44:57;-0.50;99.90
25302;DHT22;13243;50.888;4.724;2024-01-10T11:50:02;-0.50;99.90
25302;DHT22;13243;50.888;4.724;2024-01-10T11:55:06;-0.20;99.90
25302;DHT22;13243;50.888;4.724;2024-01-10T12:00:10;-0.20;99.90
25302;DHT22;13243;50.888;4.724;2024-01-10T12:05:13;-0.20;99.90
25302;DHT22;13243;50.888;4.724;2024-01-10T12:10:15;-0.20;99.90
25302;DHT22;13243;50.888;4.724;2024-01-10T12:15:18;-0.10;99.90
25302;DHT22;13243;50.888;4.724;2024-01-10T12:20:20;-0.10;99.90
25302;DHT22;13243;50.888;4.724;2024-01-10T12:25:22;0.00;99.90
25302;DHT22;13243;50.888;4.724;2024-01-10T12:30:25;0.10;99.90
25302;DHT22;13243;50.888;4.724;2024-01-10T12:35:27;0.20;99.90
25302;DHT22;13243;50.888;4.724;2024-01-10T12:40:32;0.20;99.90
25302;DHT22;13243;50.888;4.724;2024-01-10T12:45:34;0.30;99.90
25302;DHT22;13243;50.888;4.724;2024-01-10T12:50:35;0.30;99.90
25302;DHT22;13243;50.888;4.724;2024-01-10T12:55:37;0.10;99.90
25302;DHT22;13243;50.888;4.724;2024-01-10T13:00:39;0.30;99.90
25302;DHT22;13243;50.888;4.724;2024-01-10T13:05:42;0.40;99.90
25302;DHT22;13243;50.888;4.724;2024-01-10T13:10:45;0.70;99.90
25302;DHT22;13243;50.888;4.724;2024-01-10T13:15:48;0.90;99.90
25302;DHT22;13243;50.888;4.724;2024-01-10T13:20:50;0.90;99.90
25302;DHT22;13243;50.888;4.724;2024-01-10T13:25:52;1.30;99.90
25302;DHT22;13243;50.888;4.724;2024-01-10T13:30:54;1.50;99.90
25302;DHT22;13243;50.888;4.724;2024-01-10T13:36:00;1.80;99.90
25302;DHT22;13243;50.888;4.724;2024-01-10T13:41:02;1.30;99.90
25302;DHT22;13243;50.888;4.724;2024-01-10T13:46:05;1.80;99.90
25302;DHT22;13243;50.888;4.724;2024-01-10T13:51:10;2.60;99.90
25302;DHT22;13243;50.888;4.724;2024-01-10T13:56:12;2.10;99.90
25302;DHT22;13243;50.888;4.724;2024-01-10T14:01:14;2.40;99.90
25302;DHT22;13243;50.888;4.724;2024-01-10T14:06:16;2.40;99.90
25302;DHT22;13243;50.888;4.724;2024-01-10T14:11:19;2.60;99.90
25302;DHT22;13243;50.888;4.724;2024-01-10T14:16:21;2.80;99.90
25302;DHT22;13243;50.888;4.724;2024-01-10T14:21:23;3.30;99.90
25302;DHT22;13243;50.888;4.724;2024-01-10T14:26:25;5.30;99.90
25302;DHT22;13243;50.888;4.724;2024-01-10T14:31:28;6.50;99.90
25302;DHT22;13243;50.888;4.724;2024-01-10T14:36:50;7.50;99.90
25302;DHT22;13243;50.888;4.724;2024-01-10T14:41:52;8.20;99.90
25302;DHT22;13243;50.888;4.724;2024-01-10T14:46:53;8.10;99.30
25302;DHT22;13243;50.888;4.724;2024-01-10T14:52:07;7.40;99.50
25302;DHT22;13243;50.888;4.724;2024-01-10T14:57:09;5.10;99.90
25302;DHT22;13243;50.888;4.724;2024-01-10T15:02:11;2.10;99.90
25302;DHT22;13243;50.888;4.724;2024-01-10T15:07:13;1.40;99.90
25302;DHT22;13243;50.888;4.724;2024-01-10T15:12:16;1.00;99.90
25302;DHT22;13243;50.888;4.724;2024-01-10T15:17:18;0.80;99.90
25302;DHT22;13243;50.888;4.724;2024-01-10T15:22:20;0.70;99.90
25302;DHT22;13243;50.888;4.724;2024-01-10T15:27:22;0.60;99.90
25302;DHT22;13243;50.888;4.724;2024-01-10T15:32:25;0.30;99.90
25302;DHT22;13243;50.888;4.724;2024-01-10T15:37:27;0.20;99.90
25302;DHT22;13243;50.888;4.724;2024-01-10T15:42:29;0.10;99.90
25302;DHT22;13243;50.888;4.724;2024-01-10T15:47:32;-0.10;99.90
25302;DHT22;13243;50.888;4.724;2024-01-10T15:52:34;-0.20;99.90
25302;DHT22;13243;50.888;4.724;2024-01-10T15:57:37;-0.10;99.90
25302;DHT22;13243;50.888;4.724;2024-01-10T16:02:40;0.00;99.90
25302;DHT22;13243;50.888;4.724;2024-01-10T16:07:44;-0.20;99.90
25302;DHT22;13243;50.888;4.724;2024-01-10T16:12:47;-0.20;99.90
25302;DHT22;13243;50.888;4.724;2024-01-10T16:17:48;0.80;99.90
25302;DHT22;13243;50.888;4.724;2024-01-10T16:22:50;-0.50;99.90
25302;DHT22;13243;50.888;4.724;2024-01-10T16:27:52;-0.60;99.90
25302;DHT22;13243;50.888;4.724;2024-01-10T16:32:54;-0.60;99.90
25302;DHT22;13243;50.888;4.724;2024-01-10T16:37:56;-0.70;99.90
25302;DHT22;13243;50.888;4.724;2024-01-10T16:42:58;-0.80;99.90
25302;DHT22;13243;50.888;4.724;2024-01-10T16:48:00;-0.90;99.90
25302;DHT22;13243;50.888;4.724;2024-01-10T16:53:03;-0.90;99.90
25302;DHT22;13243;50.888;4.724;2024-01-10T16:58:05;-1.20;99.90
25302;DHT22;13243;50.888;4.724;2024-01-10T17:03:07;-1.20;99.90
25302;DHT22;13243;50.888;4.724;2024-01-10T17:08:09;-1.20;99.90
25302;DHT22;13243;50.888;4.724;2024-01-10T17:13:11;-1.30;99.90
25302;DHT22;13243;50.888;4.724;2024-01-10T17:18:13;-1.20;99.90
25302;DHT22;13243;50.888;4.724;2024-01-10T17:23:15;-1.30;99.90
25302;DHT22;13243;50.888;4.724;2024-01-10T17:28:17;-1.30;99.90
25302;DHT22;13243;50.888;4.724;2024-01-10T17:33:19;-1.50;99.90
25302;DHT22;13243;50.888;4.724;2024-01-10T17:38:23;-1.40;99.90
25302;DHT22;13243;50.888;4.724;2024-01-10T17:43:26;-1.60;99.90
25302;DHT22;13243;50.888;4.724;2024-01-10T17:48:28;-1.70;99.90
25302;DHT22;13243;50.888;4.724;2024-01-10T17:53:30;-1.70;99.90
25302;DHT22;13243;50.888;4.724;2024-01-10T17:58:32;-1.70;99.90
25302;DHT22;13243;50.888;4.724;2024-01-10T18:03:34;-1.60;99.90
25302;DHT22;13243;50.888;4.724;2024-01-10T18:08:36;-1.90;99.90
25302;DHT22;13243;50.888;4.724;2024-01-10T18:13:38;-1.90;99.90
25302;DHT22;13243;50.888;4.724;2024-01-10T18:18:40;-1.90;99.90
25302;DHT22;13243;50.888;4.724;2024-01-10T18:23:42;-2.10;99.90
25302;DHT22;13243;50.888;4.724;2024-01-10T18:28:44;-1.90;99.90
25302;DHT22;13243;50.888;4.724;2024-01-10T18:33:46;-2.00;99.90
25302;DHT22;13243;50.888;4.724;2024-01-10T18:38:49;-2.20;99.90
25302;DHT22;13243;50.888;4.724;2024-01-10T18:43:51;-2.20;99.90
25302;DHT22;13243;50.888;4.724;2024-01-10T18:48:53;-2.20;99.90
25302;DHT22;13243;50.888;4.724;2024-01-10T18:53:55;-2.40;99.90
25302;DHT22;13243;50.888;4.724;2024-01-10T18:58:58;-1.70;99.90
25302;DHT22;13243;50.888;4.724;2024-01-10T19:04:01;-2.40;99.90
25302;DHT22;13243;50.888;4.724;2024-01-10T19:09:03;-2.40;99.90
25302;DHT22;13243;50.888;4.724;2024-01-10T19:14:05;-2.40;99.90
25302;DHT22;13243;50.888;4.724;2024-01-10T19:19:07;-2.50;99.90
25302;DHT22;13243;50.888;4.724;2024-01-10T19:24:09;-1.80;99.90
25302;DHT22;13243;50.888;4.724;2024-01-10T19:29:11;-2.50;99.90
25302;DHT22;13243;50.888;4.724;2024-01-10T19:34:14;-2.70;99.90
25302;DHT22;13243;50.888;4.724;2024-01-10T19:39:17;-2.70;99.90
25302;DHT22;13243;50.888;4.724;2024-01-10T19:44:19;-2.80;99.90
25302;DHT22;13243;50.888;4.724;2024-01-10T19:49:21;-2.80;99.90
25302;DHT22;13243;50.888;4.724;2024-01-10T19:54:24;-2.90;99.90
25302;DHT22;13243;50.888;4.724;2024-01-10T19:59:26;-3.00;99.90
25302;DHT22;13243;50.888;4.724;2024-01-10T20:04:28;-2.90;99.90
25302;DHT22;13243;50.888;4.724;2024-01-10T20:09:30;-3.00;99.90
25302;DHT22;13243;50.888;4.724;2024-01-10T20:14:33;-3.00;99.90
25302;DHT22;13243;50.888;4.724;2024-01-10T20:19:40;-3.10;99.90
25302;DHT22;13243;50.888;4.724;2024-01-10T20:24:42;-3.20;99.90
25302;DHT22;13243;50.888;4.724;2024-01-10T20:29:44;-3.20;99.90
25302;DHT22;13243;50.888;4.724;2024-01-10T20:34:50;-3.20;99.90
25302;DHT22;13243;50.888;4.724;2024-01-10T20:39:56;-2.20;99.90
25302;DHT22;13243;50.888;4.724;2024-01-10T20:44:59;-3.30;99.90
25302;DHT22;13243;50.888;4.724;2024-01-10T20:50:01;-3.30;99.90
25302;DHT22;13243;50.888;4.724;2024-01-10T20:55:04;-3.30;99.90
25302;DHT22;13243;50.888;4.724;2024-01-10T21:00:07;-3.40;99.90
25302;DHT22;13243;50.888;4.724;2024-01-10T21:05:12;-3.50;99.90
25302;DHT22;13243;50.888;4.724;2024-01-10T21:10:14;-3.30;99.90
25302;DHT22;13243;50.888;4.724;2024-01-10T21:15:16;-3.50;99.90
25302;DHT22;13243;50.888;4.724;2024-01-10T21:20:18;-3.10;99.90
25302;DHT22;13243;50.888;4.724;2024-01-10T21:25:20;-3.60;99.90
25302;DHT22;13243;50.888;4.724;2024-01-10T21:30:22;-3.80;99.90
25302;DHT22;13243;50.888;4.724;2024-01-10T21:35:24;-3.70;99.90
25302;DHT22;13243;50.888;4.724;2024-01-10T21:40:27;-2.60;99.90
25302;DHT22;13243;50.888;4.724;2024-01-10T21:45:29;-3.70;99.90
25302;DHT22;13243;50.888;4.724;2024-01-10T21:50:30;-3.70;99.90
25302;DHT22;13243;50.888;4.724;2024-01-10T21:55:33;-3.60;99.90
25302;DHT22;13243;50.888;4.724;2024-01-10T22:00:35;-3.80;99.90
25302;DHT22;13243;50.888;4.724;2024-01-10T22:05:37;-3.80;99.90
25302;DHT22;13243;50.888;4.724;2024-01-10T22:10:39;-3.80;99.90
25302;DHT22;13243;50.888;4.724;2024-01-10T22:15:41;-3.80;99.90
25302;DHT22;13243;50.888;4.724;2024-01-10T22:20:43;-3.80;99.90
25302;DHT22;13243;50.888;4.724;2024-01-10T22:25:45;-3.90;99.90
25302;DHT22;13243;50.888;4.724;2024-01-10T22:30:47;-4.00;99.90
25302;DHT22;13243;50.888;4.724;2024-01-10T22:35:49;-3.80;99.90
25302;DHT22;13243;50.888;4.724;2024-01-10T22:40:51;-3.90;99.90
25302;DHT22;13243;50.888;4.724;2024-01-10T22:45:53;-3.90;99.90
25302;DHT22;13243;50.888;4.724;2024-01-10T22:50:56;-3.90;99.90
25302;DHT22;13243;50.888;4.724;2024-01-10T22:56:01;-3.90;99.90
25302;DHT22;13243;50.888;4.724;2024-01-10T23:01:03;-4.00;99.90
25302;DHT22;13243;50.888;4.724;2024-01-10T23:06:05;-4.00;99.90
25302;DHT22;13243;50.888;4.724;2024-01-10T23:11:08;-4.10;99.90
25302;DHT22;13243;50.888;4.724;2024-01-10T23:16:10;-4.20;99.90
25302;DHT22;13243;50.888;4.724;2024-01-10T23:21:12;-4.10;99.90
25302;DHT22;13243;50.888;4.724;2024-01-10T23:26:16;-4.10;99.90
25302;DHT22;13243;50.888;4.724;2024-01-10T23:31:19;-4.20;99.90
25302;DHT22;13243;50.888;4.724;2024-01-10T23:36:21;-4.10;99.90
25302;DHT22;13243;50.888;4.724;2024-01-10T23:41:23;-4.20;99.90
25302;DHT22;13243;50.888;4.724;2024-01-10T23:46:25;-4.20;99.90
25302;DHT22;13243;50.888;4.724;2024-01-10T23:51:27;-4.10;99.90
25302;DHT22;13243;50.888;4.724;2024-01-10T23:56:29;-4.30;99.90
